createdAt,value
2022-10-16T00:02:44.217Z,23.13
2022-10-16T00:06:47.162Z,22.98
2022-10-16T00:10:47.541Z,22.95
2022-10-16T00:14:48.066Z,22.86
2022-10-16T00:18:48.215Z,23.12
2022-10-16T00:22:51.279Z,23.04
2022-10-16T00:26:54.558Z,22.91
2022-10-16T00:30:55.566Z,22.95
2022-10-16T00:34:56.353Z,22.83
2022-10-16T00:39:02.972Z,22.57
2022-10-16T00:43:03.545Z,23.03
2022-10-16T00:47:03.793Z,23.05
2022-10-16T00:51:04.328Z,23.10
2022-10-16T00:55:09.907Z,22.86
2022-10-16T00:59:18.886Z,22.82
2022-10-16T01:03:32.424Z,22.64
2022-10-16T01:07:47.914Z,22.80
2022-10-16T01:12:05.300Z,22.85
2022-10-16T01:16:16.921Z,22.86
2022-10-16T01:20:30.037Z,22.65
2022-10-16T01:24:43.005Z,22.78
2022-10-16T01:28:53.816Z,22.72
2022-10-16T01:33:01.343Z,22.68
2022-10-16T01:37:09.487Z,22.68
2022-10-16T01:41:16.294Z,22.50
2022-10-16T01:45:23.184Z,22.60
2022-10-16T01:49:26.825Z,22.59
2022-10-16T01:53:29.492Z,22.48
2022-10-16T01:57:32.502Z,22.34
2022-10-16T02:01:40.260Z,22.27
2022-10-16T02:05:49.159Z,22.41
2022-10-16T02:09:49.747Z,22.58
2022-10-16T02:13:57.327Z,22.44
2022-10-16T02:18:00.084Z,22.46
2022-10-16T02:22:07.421Z,22.48
2022-10-16T02:26:12.846Z,22.68
2022-10-16T02:30:19.414Z,22.73
2022-10-16T02:34:26.071Z,22.58
2022-10-16T02:38:31.280Z,22.55
2022-10-16T02:42:38.693Z,22.74
2022-10-16T02:46:38.829Z,22.73
2022-10-16T02:50:41.622Z,22.80
2022-10-16T02:54:41.753Z,22.80
2022-10-16T02:58:41.861Z,23.00
2022-10-16T03:02:42.429Z,23.16
2022-10-16T03:06:45.067Z,22.82
2022-10-16T03:10:45.293Z,22.92
2022-10-16T03:14:45.633Z,22.65
2022-10-16T03:18:46.200Z,23.02
2022-10-16T03:22:48.988Z,22.92
2022-10-16T03:26:52.516Z,22.89
2022-10-16T03:30:52.614Z,22.93
2022-10-16T03:34:54.130Z,22.87
2022-10-16T03:38:56.797Z,23.10
2022-10-16T03:42:58.705Z,23.16
2022-10-16T03:46:58.980Z,22.89
2022-10-16T03:50:59.200Z,22.82
2022-10-16T03:55:01.851Z,22.70
2022-10-16T03:59:01.874Z,22.75
2022-10-16T04:03:01.966Z,22.86
2022-10-16T04:07:02.138Z,22.81
2022-10-16T04:11:05.034Z,22.84
2022-10-16T04:15:05.277Z,23.12
2022-10-16T04:19:05.498Z,23.14
2022-10-16T04:23:06.270Z,22.90
2022-10-16T04:27:09.130Z,23.02
2022-10-16T04:31:10.402Z,22.92
2022-10-16T04:35:12.049Z,22.89
2022-10-16T04:39:13.190Z,22.40
2022-10-16T04:43:15.893Z,22.90
2022-10-16T04:47:16.739Z,22.88
2022-10-16T04:51:17.132Z,22.77
2022-10-16T04:55:17.588Z,22.67
2022-10-16T04:59:21.308Z,22.53
2022-10-16T05:03:21.539Z,22.88
2022-10-16T05:07:21.970Z,22.73
2022-10-16T05:11:22.154Z,23.02
2022-10-16T05:15:26.024Z,23.18
2022-10-16T05:19:27.798Z,23.02
2022-10-16T05:23:28.699Z,23.12
2022-10-16T05:27:29.145Z,22.97
2022-10-16T05:31:32.105Z,22.90
2022-10-16T05:35:32.285Z,22.88
2022-10-16T05:39:32.342Z,22.86
2022-10-16T05:43:33.517Z,22.43
2022-10-16T05:47:36.409Z,22.64
2022-10-16T05:51:36.543Z,22.44
2022-10-16T05:55:36.590Z,22.37
2022-10-16T05:59:36.687Z,22.53
2022-10-16T06:03:39.419Z,22.77
2022-10-16T06:07:40.718Z,22.63
2022-10-16T06:11:40.968Z,22.86
2022-10-16T06:15:42.787Z,22.65
2022-10-16T06:19:45.522Z,22.84
2022-10-16T06:23:46.999Z,23.10
2022-10-16T06:27:47.344Z,23.00
2022-10-16T06:31:47.648Z,22.97
2022-10-16T06:35:50.286Z,22.95
2022-10-16T06:39:50.345Z,23.13
2022-10-16T06:43:51.381Z,23.30
2022-10-16T06:47:51.480Z,23.31
2022-10-16T06:51:54.245Z,23.62
2022-10-16T06:55:54.698Z,23.96
2022-10-16T06:59:55.506Z,23.98
2022-10-16T07:03:56.323Z,24.54
2022-10-16T07:07:59.109Z,24.65
2022-10-16T07:11:59.310Z,24.59
2022-10-16T07:15:59.458Z,24.41
2022-10-16T07:19:59.574Z,24.97
2022-10-16T07:24:04.738Z,25.40
2022-10-16T07:28:04.935Z,25.39
2022-10-16T07:32:06.412Z,25.50
2022-10-16T07:36:07.450Z,25.62
2022-10-16T07:40:12.902Z,25.90
2022-10-16T07:44:13.035Z,25.42
2022-10-16T07:48:13.035Z,25.24
2022-10-16T07:52:13.054Z,25.38
2022-10-16T07:56:16.811Z,25.67
2022-10-16T08:00:17.887Z,25.48
2022-10-16T08:04:17.959Z,25.28
2022-10-16T08:08:19.656Z,25.46
2022-10-16T08:12:22.394Z,26.02
2022-10-16T08:16:22.544Z,26.35
2022-10-16T08:20:22.675Z,26.22
2022-10-16T08:24:23.072Z,25.83
2022-10-16T08:28:27.120Z,25.41
2022-10-16T08:32:27.713Z,25.41
2022-10-16T08:36:28.151Z,25.90
2022-10-16T08:40:32.148Z,26.11
2022-10-16T08:45:21.025Z,25.55
2022-10-16T08:49:21.810Z,26.18
2022-10-16T08:53:29.358Z,26.38
2022-10-16T08:57:32.474Z,26.10
2022-10-16T09:01:45.695Z,26.67
2022-10-16T09:06:04.664Z,26.33
2022-10-16T09:10:30.585Z,26.04
2022-10-16T09:14:58.866Z,25.88
2022-10-16T09:19:19.006Z,26.14
2022-10-16T09:23:22.078Z,26.81
2022-10-16T09:27:22.159Z,27.06
2022-10-16T09:31:25.217Z,27.30
2022-10-16T09:35:41.597Z,27.62
2022-10-16T09:39:49.056Z,28.21
2022-10-16T09:43:57.405Z,28.63
2022-10-16T09:47:57.970Z,29.19
2022-10-16T09:52:16.557Z,29.25
2022-10-16T09:56:27.049Z,30.44
2022-10-16T10:00:28.960Z,31.60
2022-10-16T10:04:29.523Z,32.65
2022-10-16T10:08:32.229Z,32.00
2022-10-16T10:12:37.534Z,30.61
2022-10-16T10:16:39.421Z,30.28
2022-10-16T10:20:42.149Z,30.23
2022-10-16T10:24:45.480Z,29.58
2022-10-16T10:29:03.895Z,28.56
2022-10-16T10:33:27.787Z,28.41
2022-10-16T10:37:55.629Z,28.49
2022-10-16T10:42:31.909Z,28.21
2022-10-16T10:46:43.294Z,28.32
2022-10-16T10:50:53.134Z,28.88
2022-10-16T10:55:00.543Z,29.02
2022-10-16T10:59:23.443Z,29.43
2022-10-16T11:03:58.944Z,30.28
2022-10-16T11:08:04.516Z,30.55
2022-10-16T11:12:15.852Z,31.23
2022-10-16T11:16:25.574Z,30.48
2022-10-16T11:20:31.329Z,31.23
2022-10-16T11:24:46.825Z,31.92
2022-10-16T11:28:53.132Z,32.49
2022-10-16T11:33:13.909Z,32.08
2022-10-16T11:37:21.539Z,32.27
2022-10-16T11:41:32.731Z,32.78
2022-10-16T11:45:44.909Z,32.31
2022-10-16T11:49:51.322Z,32.34
2022-10-16T11:54:02.605Z,32.12
2022-10-16T11:58:09.624Z,31.70
2022-10-16T12:02:35.352Z,32.71
2022-10-16T12:06:46.330Z,32.93
2022-10-16T12:10:50.707Z,33.16
2022-10-16T12:15:14.692Z,33.49
2022-10-16T12:19:18.169Z,33.55
2022-10-16T12:23:26.553Z,33.30
2022-10-16T12:27:33.500Z,32.75
2022-10-16T12:31:57.488Z,32.30
2022-10-16T12:36:00.106Z,32.84
2022-10-16T12:40:15.034Z,33.44
2022-10-16T12:44:27.466Z,35.87
2022-10-16T12:48:36.783Z,36.99
2022-10-16T12:52:48.235Z,37.17
2022-10-16T12:57:08.311Z,36.02
2022-10-16T13:01:28.467Z,36.19
2022-10-16T13:05:48.815Z,35.18
2022-10-16T13:10:06.440Z,34.66
2022-10-16T13:14:56.656Z,35.11
2022-10-16T13:19:15.228Z,36.18
2022-10-16T13:23:28.084Z,35.17
2022-10-16T13:27:43.586Z,35.39
2022-10-16T13:31:48.387Z,34.66
2022-10-16T13:35:55.223Z,34.03
2022-10-16T13:40:05.862Z,33.96
2022-10-16T13:44:06.325Z,33.86
2022-10-16T13:48:15.086Z,33.26
2022-10-16T13:52:23.354Z,33.39
2022-10-16T13:56:28.438Z,33.16
2022-10-16T14:00:33.284Z,32.58
2022-10-16T14:04:42.099Z,33.06
2022-10-16T14:08:50.158Z,32.88
2022-10-16T14:13:00.612Z,33.66
2022-10-16T14:17:00.901Z,33.96
2022-10-16T14:21:16.209Z,33.38
2022-10-16T14:25:31.424Z,34.25
2022-10-16T14:29:36.627Z,35.23
2022-10-16T14:33:38.184Z,35.64
2022-10-16T14:37:41.125Z,36.80
2022-10-16T14:41:50.605Z,36.76
2022-10-16T14:45:57.220Z,36.58
2022-10-16T14:49:59.945Z,35.65
2022-10-16T14:54:02.884Z,35.57
2022-10-16T14:58:03.046Z,35.63
2022-10-16T15:02:04.475Z,35.96
2022-10-16T15:06:04.521Z,36.39
2022-10-16T15:10:08.486Z,36.28
2022-10-16T15:14:08.982Z,35.57
2022-10-16T15:18:09.394Z,34.54
2022-10-16T15:22:09.509Z,33.51
2022-10-16T15:26:12.544Z,32.89
2022-10-16T15:30:14.474Z,32.00
2022-10-16T15:34:14.696Z,31.52
2022-10-16T15:38:16.722Z,31.04
2022-10-16T15:42:20.150Z,30.48
2022-10-16T15:46:23.991Z,30.03
2022-10-16T15:50:24.156Z,29.75
2022-10-16T15:54:24.703Z,29.43
2022-10-16T15:58:27.434Z,29.33
2022-10-16T16:02:28.197Z,29.29
2022-10-16T16:06:28.626Z,29.08
2022-10-16T16:10:28.997Z,28.95
2022-10-16T16:14:32.298Z,28.73
2022-10-16T16:18:32.556Z,28.31
2022-10-16T16:22:33.175Z,28.22
2022-10-16T16:26:37.167Z,28.20
2022-10-16T16:30:39.999Z,28.52
2022-10-16T16:34:40.200Z,28.26
2022-10-16T16:38:40.326Z,28.65
2022-10-16T16:42:40.451Z,28.70
2022-10-16T16:46:43.920Z,28.73
2022-10-16T16:50:44.092Z,28.38
2022-10-16T16:54:44.966Z,28.11
2022-10-16T16:58:45.261Z,28.09
2022-10-16T17:02:51.655Z,27.91
2022-10-16T17:06:51.974Z,27.64
2022-10-16T17:10:55.812Z,27.28
2022-10-16T17:14:55.919Z,27.28
2022-10-16T17:18:58.629Z,27.00
2022-10-16T17:22:58.824Z,26.82
2022-10-16T17:26:59.001Z,26.64
2022-10-16T17:30:59.231Z,26.57
2022-10-16T17:35:02.399Z,26.25
2022-10-16T17:39:04.574Z,26.34
2022-10-16T17:43:05.777Z,26.19
2022-10-16T17:47:05.957Z,26.17
2022-10-16T17:51:10.922Z,26.17
2022-10-16T17:55:12.493Z,26.14
2022-10-16T17:59:15.054Z,25.63
2022-10-16T18:03:15.159Z,25.77
2022-10-16T18:07:17.902Z,25.83
2022-10-16T18:11:18.269Z,25.85
2022-10-16T18:15:18.574Z,25.73
2022-10-16T18:19:19.211Z,25.46
2022-10-16T18:23:22.016Z,25.42
2022-10-16T18:27:22.667Z,25.40
2022-10-16T18:31:26.609Z,25.32
2022-10-16T18:35:27.290Z,25.32
2022-10-16T18:39:30.355Z,25.27
2022-10-16T18:43:30.675Z,25.05
2022-10-16T18:47:32.227Z,25.16
2022-10-16T18:51:34.787Z,25.27
2022-10-16T18:55:37.503Z,25.27
2022-10-16T18:59:39.936Z,25.26
2022-10-16T19:03:41.591Z,25.35
2022-10-16T19:07:43.499Z,25.16
2022-10-16T19:11:48.030Z,25.18
2022-10-16T19:15:57.977Z,25.13
2022-10-16T19:19:59.068Z,25.06
2022-10-16T19:24:05.223Z,25.12
2022-10-16T19:28:08.807Z,25.19
2022-10-16T19:32:09.423Z,25.22
2022-10-16T19:36:14.950Z,25.14
2022-10-16T19:40:15.513Z,24.88
2022-10-16T19:44:20.731Z,24.89
2022-10-16T19:52:43.154Z,24.78
2022-10-16T19:56:44.774Z,24.75
2022-10-16T20:00:47.489Z,24.58
2022-10-16T20:04:47.895Z,24.28
2022-10-16T20:08:51.757Z,24.10
2022-10-16T20:12:52.305Z,24.11
2022-10-16T20:16:55.907Z,23.91
2022-10-16T20:20:56.457Z,23.69
2022-10-16T20:24:56.944Z,23.63
2022-10-16T20:28:57.717Z,23.67
2022-10-16T20:33:00.649Z,23.50
2022-10-16T20:37:00.786Z,23.52
2022-10-16T20:41:08.166Z,23.45
2022-10-16T20:45:10.306Z,23.51
2022-10-16T20:49:28.308Z,23.23
2022-10-16T20:53:38.832Z,23.28
2022-10-16T20:57:39.996Z,23.07
2022-10-16T21:01:40.917Z,22.91
2022-10-16T21:05:46.283Z,22.80
2022-10-16T21:09:47.072Z,22.68
2022-10-16T21:13:47.895Z,22.51
2022-10-16T21:17:48.647Z,22.41
2022-10-16T21:21:57.458Z,22.23
2022-10-16T21:25:57.623Z,22.16
2022-10-16T21:29:57.725Z,22.29
2022-10-16T21:33:58.488Z,22.21
2022-10-16T21:38:01.717Z,22.27
2022-10-16T21:42:01.894Z,22.22
2022-10-16T21:46:02.004Z,22.03
2022-10-16T21:50:02.095Z,22.16
2022-10-16T21:54:06.221Z,22.08
2022-10-16T21:58:06.917Z,22.14
2022-10-16T22:02:08.117Z,22.08
2022-10-16T22:06:10.962Z,22.14
2022-10-16T22:10:14.006Z,21.93
2022-10-16T22:14:17.104Z,21.89
2022-10-16T22:18:17.204Z,21.75
2022-10-16T22:22:17.253Z,21.67
2022-10-16T22:26:19.959Z,21.65
2022-10-16T22:30:20.356Z,21.60
2022-10-16T22:34:20.689Z,21.38
2022-10-16T22:38:21.050Z,21.35
2022-10-16T22:42:23.734Z,21.55
2022-10-16T22:46:26.768Z,21.44
2022-10-16T22:50:27.014Z,21.31
2022-10-16T22:54:27.176Z,21.18
2022-10-16T22:58:29.969Z,21.00
2022-10-16T23:02:30.196Z,21.01
2022-10-16T23:06:30.843Z,20.86
2022-10-16T23:10:30.999Z,20.83
2022-10-16T23:14:33.732Z,20.83
2022-10-16T23:18:34.582Z,20.77
2022-10-16T23:22:34.690Z,20.82
2022-10-16T23:26:37.367Z,20.99
2022-10-16T23:30:42.105Z,20.81
2022-10-16T23:34:42.237Z,20.98
2022-10-16T23:38:43.342Z,20.98
2022-10-16T23:42:43.439Z,20.95
2022-10-16T23:46:46.179Z,20.89
2022-10-16T23:50:46.244Z,20.79
2022-10-16T23:54:46.351Z,20.77
2022-10-16T23:58:46.526Z,20.80
